createdAt,value
2022-08-26T00:00:14.966Z,2.78
2022-08-26T00:05:18.474Z,2.70
2022-08-26T00:10:23.082Z,3.97
2022-08-26T00:15:29.002Z,3.03
2022-08-26T00:20:34.368Z,3.03
2022-08-26T00:25:42.476Z,3.28
2022-08-26T00:30:48.079Z,3.22
2022-08-26T00:35:54.634Z,4.05
2022-08-26T00:41:00.435Z,2.70
2022-08-26T00:46:15.423Z,2.78
2022-08-26T00:51:23.065Z,2.70
2022-08-26T00:56:32.552Z,3.00
2022-08-26T01:01:36.524Z,3.83
2022-08-26T01:06:44.411Z,4.85
2022-08-26T01:11:51.976Z,2.97
2022-08-26T01:16:55.011Z,3.15
2022-08-26T01:22:00.671Z,3.53
2022-08-26T01:27:09.023Z,3.97
2022-08-26T01:32:15.950Z,4.13
2022-08-26T01:37:21.224Z,3.10
2022-08-26T01:42:28.548Z,4.28
2022-08-26T01:47:34.706Z,3.20
2022-08-26T01:52:42.694Z,3.28
2022-08-26T01:57:49.977Z,4.25
2022-08-26T02:03:12.221Z,3.67
2022-08-26T02:08:20.599Z,3.50
2022-08-26T02:13:32.628Z,3.30
2022-08-26T02:18:39.150Z,3.33
2022-08-26T02:23:42.623Z,5.47
2022-08-26T02:28:52.399Z,3.38
2022-08-26T02:33:55.454Z,3.30
2022-08-26T02:39:00.603Z,2.60
2022-08-26T02:44:07.133Z,3.47
2022-08-26T02:49:10.280Z,3.65
2022-08-26T02:54:13.643Z,3.60
2022-08-26T02:59:18.308Z,4.55
2022-08-26T03:04:21.343Z,3.03
2022-08-26T03:09:28.818Z,3.88
2022-08-26T03:14:33.246Z,3.72
2022-08-26T03:19:36.502Z,3.40
2022-08-26T03:24:39.555Z,3.60
2022-08-26T03:30:01.348Z,4.63
2022-08-26T03:35:04.755Z,4.05
2022-08-26T03:40:10.448Z,3.50
2022-08-26T03:45:17.188Z,3.88
2022-08-26T03:50:24.259Z,3.47
2022-08-26T03:55:31.920Z,3.30
2022-08-26T04:00:36.576Z,3.00
2022-08-26T04:05:39.735Z,3.47
2022-08-26T04:10:43.495Z,3.60
2022-08-26T04:15:48.026Z,6.70
2022-08-26T04:20:51.506Z,4.55
2022-08-26T04:25:54.527Z,3.15
2022-08-26T04:30:59.290Z,3.10
2022-08-26T04:36:03.405Z,3.42
2022-08-26T04:41:15.372Z,3.78
2022-08-26T04:46:24.437Z,3.55
2022-08-26T04:51:28.538Z,3.85
2022-08-26T04:56:33.894Z,4.13
2022-08-26T05:01:39.714Z,3.53
2022-08-26T05:06:42.999Z,3.88
2022-08-26T05:11:48.404Z,3.40
2022-08-26T05:16:56.397Z,3.63
2022-08-26T05:21:59.427Z,4.68
2022-08-26T05:27:03.148Z,4.22
2022-08-26T05:32:16.026Z,4.47
2022-08-26T05:37:19.432Z,4.97
2022-08-26T05:42:23.218Z,5.20
2022-08-26T05:47:27.723Z,4.25
2022-08-26T05:52:30.767Z,6.25
2022-08-26T05:57:37.465Z,4.32
2022-08-26T06:02:44.441Z,4.28
2022-08-26T06:08:08.731Z,4.47
2022-08-26T06:13:13.190Z,5.03
2022-08-26T06:18:21.960Z,5.30
2022-08-26T06:23:42.586Z,7.90
2022-08-26T06:28:45.913Z,4.47
2022-08-26T06:33:51.113Z,4.53
2022-08-26T06:38:56.099Z,6.45
2022-08-26T06:44:00.380Z,5.55
2022-08-26T06:49:05.578Z,4.13
2022-08-26T06:54:09.538Z,5.38
2022-08-26T06:59:13.579Z,4.75
2022-08-26T07:04:20.115Z,7.38
2022-08-26T07:09:27.589Z,5.25
2022-08-26T07:14:31.738Z,5.85
2022-08-26T07:19:36.931Z,4.80
2022-08-26T07:24:42.497Z,5.97
2022-08-26T07:29:46.075Z,6.65
2022-08-26T07:34:50.876Z,5.38
2022-08-26T07:39:53.984Z,6.15
2022-08-26T07:44:57.084Z,5.68
2022-08-26T07:50:02.045Z,6.28
2022-08-26T07:55:08.382Z,8.02
2022-08-26T08:00:15.941Z,5.00
2022-08-26T08:05:23.259Z,6.05
2022-08-26T08:10:37.804Z,8.70
2022-08-26T08:15:42.310Z,10.93
2022-08-26T08:20:59.412Z,11.05
2022-08-26T08:26:11.908Z,8.65
2022-08-26T08:31:38.666Z,5.53
2022-08-26T08:36:46.722Z,6.28
2022-08-26T08:42:06.488Z,9.38
2022-08-26T08:47:19.390Z,8.85
2022-08-26T08:52:30.630Z,9.27
2022-08-26T08:57:46.342Z,6.93
2022-08-26T09:02:58.115Z,6.68
2022-08-26T09:08:11.079Z,6.90
2022-08-26T09:13:25.362Z,6.18
2022-08-26T09:18:41.118Z,27.00
2022-08-26T09:23:51.980Z,48.90
2022-08-26T09:28:58.586Z,24.92
2022-08-26T09:34:17.274Z,16.80
2022-08-26T09:39:33.159Z,18.67
2022-08-26T09:44:51.962Z,17.67
2022-08-26T09:50:04.229Z,22.70
2022-08-26T09:55:21.597Z,16.88
2022-08-26T10:00:29.026Z,17.98
2022-08-26T10:05:37.408Z,13.13
2022-08-26T10:10:46.271Z,11.38
2022-08-26T10:16:00.797Z,10.30
2022-08-26T10:21:08.435Z,8.48
2022-08-26T10:26:19.295Z,11.77
2022-08-26T10:31:29.108Z,10.07
2022-08-26T10:37:13.962Z,7.95
2022-08-26T10:42:26.890Z,7.10
2022-08-26T10:47:36.778Z,7.45
2022-08-26T10:52:55.413Z,7.20
2022-08-26T10:58:09.075Z,8.32
2022-08-26T11:03:27.921Z,19.83
2022-08-26T11:08:31.749Z,16.13
2022-08-26T11:14:01.667Z,10.23
2022-08-26T11:19:06.488Z,9.05
2022-08-26T11:24:09.540Z,7.70
2022-08-26T11:29:34.032Z,13.85
2022-08-26T11:34:57.902Z,16.92
2022-08-26T11:40:03.287Z,12.05
2022-08-26T11:45:19.770Z,9.18
2022-08-26T11:50:26.126Z,7.70
2022-08-26T11:55:29.913Z,7.25
2022-08-26T12:00:45.758Z,8.07
2022-08-26T12:05:52.008Z,17.95
2022-08-26T12:11:04.149Z,13.40
2022-08-26T12:16:08.808Z,8.77
2022-08-26T12:21:16.020Z,8.35
2022-08-26T12:26:26.141Z,7.50
2022-08-26T12:31:33.839Z,20.73
2022-08-26T12:36:41.451Z,31.92
2022-08-26T12:41:52.923Z,18.35
2022-08-26T12:47:03.531Z,9.60
2022-08-26T12:52:07.940Z,7.18
2022-08-26T12:57:11.539Z,5.93
2022-08-26T13:02:37.495Z,7.13
2022-08-26T13:07:40.979Z,20.27
2022-08-26T13:12:44.083Z,15.38
2022-08-26T13:17:48.471Z,8.73
2022-08-26T13:22:58.502Z,5.93
2022-08-26T13:28:02.282Z,5.70
2022-08-26T13:33:06.857Z,4.57
2022-08-26T13:38:22.359Z,9.52
2022-08-26T13:43:37.085Z,19.35
2022-08-26T13:48:41.891Z,9.50
2022-08-26T13:53:47.932Z,7.88
2022-08-26T13:58:51.315Z,6.47
2022-08-26T14:03:57.164Z,6.20
2022-08-26T14:09:00.319Z,5.72
2022-08-26T14:14:03.647Z,5.50
2022-08-26T14:19:09.827Z,5.43
2022-08-26T14:24:12.898Z,5.47
2022-08-26T14:29:16.814Z,4.60
2022-08-26T14:34:21.639Z,3.97
2022-08-26T14:39:25.048Z,4.20
2022-08-26T14:44:31.216Z,18.63
2022-08-26T14:49:35.760Z,11.98
2022-08-26T14:54:38.853Z,8.88
2022-08-26T14:59:49.665Z,5.80
2022-08-26T15:04:54.602Z,7.03
2022-08-26T15:09:57.777Z,11.27
2022-08-26T15:15:00.844Z,8.55
2022-08-26T15:20:06.955Z,5.75
2022-08-26T15:25:11.693Z,4.90
2022-08-26T15:30:16.575Z,4.07
2022-08-26T15:35:21.171Z,3.90
2022-08-26T15:40:26.591Z,4.68
2022-08-26T15:45:29.743Z,5.97
2022-08-26T15:50:34.750Z,4.40
2022-08-26T15:55:37.790Z,4.05
2022-08-26T16:00:41.143Z,3.38
2022-08-26T16:05:45.931Z,4.47
2022-08-26T16:10:51.251Z,6.50
2022-08-26T16:15:54.331Z,3.33
2022-08-26T16:21:13.548Z,6.53
2022-08-26T16:26:19.867Z,3.88
2022-08-26T16:31:23.342Z,22.58
2022-08-26T16:36:27.816Z,5.20
2022-08-26T16:41:33.553Z,9.88
2022-08-26T16:46:37.171Z,6.18
2022-08-26T16:51:41.728Z,4.70
2022-08-26T16:56:44.771Z,5.57
2022-08-26T17:01:47.922Z,4.35
2022-08-26T17:06:52.408Z,4.97
2022-08-26T17:11:55.622Z,4.45
2022-08-26T17:16:59.294Z,9.50
2022-08-26T17:22:06.086Z,7.65
2022-08-26T17:27:09.160Z,7.63
2022-08-26T17:32:12.644Z,5.75
2022-08-26T17:37:17.419Z,7.25
2022-08-26T17:42:20.553Z,7.50
2022-08-26T17:47:35.317Z,4.78
2022-08-26T17:52:40.548Z,5.10
2022-08-26T17:57:44.035Z,5.80
2022-08-26T18:02:57.438Z,5.68
2022-08-26T18:08:01.893Z,5.70
2022-08-26T18:13:05.608Z,8.85
2022-08-26T18:18:08.756Z,6.32
2022-08-26T18:23:13.706Z,4.50
2022-08-26T18:28:16.980Z,5.15
2022-08-26T18:33:21.461Z,6.38
2022-08-26T18:38:28.304Z,5.95
2022-08-26T18:43:31.536Z,5.72
2022-08-26T18:48:36.727Z,8.02
2022-08-26T18:53:42.056Z,8.55
2022-08-26T18:58:45.286Z,21.50
2022-08-26T19:03:48.807Z,12.23
2022-08-26T19:08:53.736Z,9.27
2022-08-26T19:13:56.814Z,10.85
2022-08-26T19:19:01.382Z,17.60
2022-08-26T19:24:12.290Z,9.25
2022-08-26T19:34:24.775Z,6.28
2022-08-26T19:39:29.365Z,4.32
2022-08-26T19:44:49.979Z,9.90
2022-08-26T19:49:54.528Z,7.97
2022-08-26T19:54:59.011Z,8.02
2022-08-26T20:00:03.679Z,4.85
2022-08-26T20:05:08.291Z,7.35
2022-08-26T20:10:14.841Z,14.88
2022-08-26T20:15:17.987Z,5.03
2022-08-26T20:20:38.712Z,7.45
2022-08-26T20:25:43.218Z,14.27
2022-08-26T20:30:46.273Z,9.45
2022-08-26T20:35:49.347Z,12.73
2022-08-26T20:40:56.243Z,11.05
2022-08-26T20:45:59.486Z,8.48
2022-08-26T20:51:03.005Z,6.18
2022-08-26T20:56:09.743Z,7.75
2022-08-26T21:01:19.558Z,4.38
2022-08-26T21:06:22.714Z,4.47
2022-08-26T21:11:28.290Z,4.10
2022-08-26T21:16:31.747Z,4.20
2022-08-26T21:21:35.675Z,4.93
2022-08-26T21:26:40.364Z,4.15
2022-08-26T21:31:46.618Z,3.60
2022-08-26T21:36:50.723Z,4.32
2022-08-26T21:41:55.128Z,4.72
2022-08-26T21:46:58.162Z,3.53
2022-08-26T21:52:04.488Z,4.55
2022-08-26T21:57:08.987Z,2.97
2022-08-26T22:02:13.385Z,4.47
2022-08-26T22:07:17.257Z,3.30
2022-08-26T22:12:21.672Z,4.32
2022-08-26T22:17:24.735Z,3.20
2022-08-26T22:22:28.591Z,3.38
2022-08-26T22:27:33.066Z,3.13
2022-08-26T22:32:43.955Z,2.40
2022-08-26T22:37:48.132Z,3.13
2022-08-26T22:42:57.913Z,2.55
2022-08-26T22:48:05.018Z,3.08
2022-08-26T22:53:08.087Z,2.97
2022-08-26T22:58:14.452Z,2.83
2022-08-26T23:03:18.205Z,3.05
2022-08-26T23:08:21.385Z,3.47
2022-08-26T23:13:25.799Z,4.13
2022-08-26T23:18:28.906Z,3.50
2022-08-26T23:23:32.035Z,2.88
2022-08-26T23:28:38.522Z,3.67
2022-08-26T23:33:55.484Z,3.03
2022-08-26T23:38:58.564Z,3.85
2022-08-26T23:44:05.243Z,2.65
2022-08-26T23:49:08.295Z,2.58
2022-08-26T23:54:11.451Z,3.05
2022-08-26T23:59:15.967Z,2.28
